createdAt,value
2023-07-03T00:00:12.468Z,7.00
2023-07-03T00:02:40.556Z,7.40
2023-07-03T00:07:38.709Z,6.43
2023-07-03T00:10:07.853Z,6.65
2023-07-03T00:12:38.632Z,6.90
2023-07-03T00:15:07.548Z,7.18
2023-07-03T00:17:38.714Z,7.15
2023-07-03T00:20:12.443Z,5.85
2023-07-03T00:22:40.132Z,6.80
2023-07-03T00:25:08.867Z,6.95
2023-07-03T00:27:36.566Z,6.75
2023-07-03T00:30:04.703Z,7.15
2023-07-03T00:32:32.254Z,7.57
2023-07-03T00:34:59.845Z,6.47
2023-07-03T00:37:29.100Z,6.95
2023-07-03T00:39:56.676Z,6.00
2023-07-03T00:42:25.539Z,7.47
2023-07-03T00:44:53.225Z,6.15
2023-07-03T00:47:21.576Z,6.57
2023-07-03T00:49:50.215Z,6.68
2023-07-03T00:52:17.974Z,6.53
2023-07-03T00:54:46.845Z,6.07
2023-07-03T00:57:15.898Z,6.63
2023-07-03T00:59:45.995Z,6.18
2023-07-03T01:02:17.914Z,6.50
2023-07-03T01:04:51.277Z,6.60
2023-07-03T01:07:26.062Z,5.70
2023-07-03T01:09:57.074Z,6.35
2023-07-03T01:12:27.949Z,6.50
2023-07-03T01:14:59.022Z,6.30
2023-07-03T01:17:29.281Z,6.70
2023-07-03T01:19:59.167Z,6.05
2023-07-03T01:22:33.034Z,6.13
2023-07-03T01:25:05.895Z,7.05
2023-07-03T01:27:36.844Z,6.70
2023-07-03T01:30:08.660Z,6.57
2023-07-03T01:32:38.324Z,6.18
2023-07-03T01:35:09.681Z,6.78
2023-07-03T01:37:42.391Z,6.05
2023-07-03T01:40:17.061Z,6.72
2023-07-03T01:42:46.452Z,5.90
2023-07-03T01:45:14.509Z,6.40
2023-07-03T01:50:14.492Z,5.97
2023-07-03T01:52:45.580Z,6.15
2023-07-03T01:55:19.923Z,7.13
2023-07-03T01:57:54.398Z,5.97
2023-07-03T02:00:27.298Z,5.68
2023-07-03T02:02:58.215Z,5.72
2023-07-03T02:05:29.912Z,7.07
2023-07-03T02:08:02.285Z,6.20
2023-07-03T02:10:31.262Z,7.10
2023-07-03T02:12:58.809Z,6.47
2023-07-03T02:15:26.398Z,6.13
2023-07-03T02:17:55.463Z,6.72
2023-07-03T02:20:23.119Z,6.97
2023-07-03T02:22:50.719Z,6.15
2023-07-03T02:25:18.232Z,5.50
2023-07-03T02:27:47.452Z,6.28
2023-07-03T02:30:18.090Z,6.95
2023-07-03T02:32:45.706Z,5.97
2023-07-03T02:35:15.425Z,6.10
2023-07-03T02:37:42.979Z,5.93
2023-07-03T02:40:14.527Z,6.30
2023-07-03T02:42:42.189Z,6.22
2023-07-03T02:45:11.501Z,6.25
2023-07-03T02:47:40.165Z,6.72
2023-07-03T02:50:09.402Z,6.03
2023-07-03T02:52:37.195Z,6.00
2023-07-03T02:55:05.128Z,6.60
2023-07-03T02:57:32.623Z,6.40
2023-07-03T03:00:00.163Z,5.93
2023-07-03T03:02:29.213Z,5.80
2023-07-03T03:04:57.017Z,6.20
2023-07-03T03:07:24.749Z,5.90
2023-07-03T03:09:52.361Z,5.70
2023-07-03T03:12:19.844Z,6.07
2023-07-03T03:14:47.436Z,5.78
2023-07-03T03:17:15.511Z,6.75
2023-07-03T03:22:12.041Z,6.03
2023-07-03T03:24:39.629Z,5.95
2023-07-03T03:27:07.891Z,5.38
2023-07-03T03:29:35.572Z,4.60
2023-07-03T03:32:03.260Z,4.40
2023-07-03T03:34:33.646Z,5.88
2023-07-03T03:37:03.163Z,5.93
2023-07-03T03:39:30.842Z,5.43
2023-07-03T03:41:58.546Z,5.45
2023-07-03T03:44:26.119Z,5.78
2023-07-03T03:46:54.142Z,5.82
2023-07-03T03:49:24.778Z,6.28
2023-07-03T03:51:52.346Z,5.00
2023-07-03T03:54:21.890Z,5.88
2023-07-03T03:56:51.649Z,5.20
2023-07-03T03:59:19.152Z,5.55
2023-07-03T04:01:46.741Z,4.72
2023-07-03T04:04:14.975Z,5.88
2023-07-03T04:06:42.816Z,5.72
2023-07-03T04:09:10.742Z,5.47
2023-07-03T04:11:39.695Z,4.82
2023-07-03T04:14:10.366Z,5.07
2023-07-03T04:16:38.825Z,5.55
2023-07-03T04:19:06.519Z,6.20
2023-07-03T04:21:34.061Z,5.25
2023-07-03T04:24:01.622Z,5.55
2023-07-03T04:26:29.192Z,5.30
2023-07-03T04:28:58.110Z,4.85
2023-07-03T04:31:25.897Z,5.53
2023-07-03T04:33:53.406Z,4.50
2023-07-03T04:36:23.397Z,5.82
2023-07-03T04:38:58.039Z,5.13
2023-07-03T04:41:25.676Z,5.32
2023-07-03T04:43:58.034Z,5.50
2023-07-03T04:46:28.005Z,4.65
2023-07-03T04:49:00.514Z,5.38
2023-07-03T04:51:31.534Z,4.75
2023-07-03T04:53:59.760Z,5.28
2023-07-03T04:58:54.859Z,4.72
2023-07-03T05:01:23.269Z,4.95
2023-07-03T05:03:52.395Z,5.32
2023-07-03T05:06:20.095Z,4.90
2023-07-03T05:08:48.091Z,6.60
2023-07-03T05:11:15.912Z,5.70
2023-07-03T05:13:43.558Z,4.93
2023-07-03T05:16:11.099Z,4.55
2023-07-03T05:18:38.731Z,4.82
2023-07-03T05:21:07.603Z,4.97
2023-07-03T05:23:35.171Z,4.68
2023-07-03T05:26:02.669Z,4.78
2023-07-03T05:28:31.458Z,4.32
2023-07-03T05:31:00.187Z,4.80
2023-07-03T05:33:29.194Z,5.25
2023-07-03T05:35:57.169Z,5.80
2023-07-03T05:38:26.084Z,5.55
2023-07-03T05:41:00.114Z,4.65
2023-07-03T05:43:28.036Z,5.72
2023-07-03T05:45:55.578Z,5.28
2023-07-03T05:48:23.249Z,5.00
2023-07-03T05:50:50.810Z,5.15
2023-07-03T05:53:18.882Z,5.22
2023-07-03T05:55:56.545Z,4.13
2023-07-03T05:58:24.817Z,5.47
2023-07-03T06:00:52.974Z,4.78
2023-07-03T06:05:49.854Z,5.00
2023-07-03T06:08:17.630Z,3.28
2023-07-03T06:10:46.379Z,5.13
2023-07-03T06:13:17.615Z,4.70
2023-07-03T06:15:45.193Z,3.63
2023-07-03T06:18:12.761Z,4.43
2023-07-03T06:20:40.331Z,4.65
2023-07-03T06:23:08.310Z,5.40
2023-07-03T06:25:36.093Z,5.18
2023-07-03T06:28:03.996Z,4.78
2023-07-03T06:30:32.819Z,4.53
2023-07-03T06:33:00.377Z,4.50
2023-07-03T06:35:28.008Z,4.47
2023-07-03T06:37:57.080Z,4.85
2023-07-03T06:40:24.566Z,5.25
2023-07-03T06:42:53.413Z,4.97
2023-07-03T06:45:21.075Z,5.05
2023-07-03T06:47:50.063Z,4.72
2023-07-03T06:50:19.197Z,4.43
2023-07-03T06:52:48.796Z,5.57
2023-07-03T06:55:16.404Z,4.78
2023-07-03T06:57:44.007Z,4.55
2023-07-03T07:00:14.001Z,5.18
2023-07-03T07:02:41.691Z,5.18
2023-07-03T07:05:11.392Z,5.68
2023-07-03T07:07:38.985Z,4.63
2023-07-03T07:10:07.632Z,4.97
2023-07-03T07:12:35.143Z,5.55
2023-07-03T07:15:02.706Z,4.28
2023-07-03T07:17:46.239Z,4.60
2023-07-03T07:20:19.024Z,5.80
2023-07-03T07:22:46.529Z,4.38
2023-07-03T07:25:14.117Z,5.22
2023-07-03T07:27:41.708Z,5.57
2023-07-03T07:30:10.327Z,4.63
2023-07-03T07:32:37.899Z,6.00
2023-07-03T07:35:09.331Z,5.05
2023-07-03T07:37:38.272Z,4.47
2023-07-03T07:40:07.152Z,3.58
2023-07-03T07:42:34.711Z,4.72
2023-07-03T07:45:02.306Z,4.57
2023-07-03T07:47:30.258Z,3.30
2023-07-03T07:49:59.221Z,5.53
2023-07-03T07:52:26.923Z,3.78
2023-07-03T07:54:57.135Z,4.60
2023-07-03T07:57:24.976Z,4.90
2023-07-03T07:59:52.485Z,4.05
2023-07-03T08:02:20.180Z,4.38
2023-07-03T08:04:47.898Z,4.55
2023-07-03T08:07:18.245Z,3.63
2023-07-03T08:09:45.799Z,3.28
2023-07-03T08:12:14.789Z,5.40
2023-07-03T08:14:42.298Z,4.55
2023-07-03T08:17:10.157Z,5.45
2023-07-03T08:19:37.629Z,4.25
2023-07-03T08:22:05.578Z,3.33
2023-07-03T08:24:33.113Z,4.00
2023-07-03T08:27:00.786Z,4.65
2023-07-03T08:29:29.732Z,5.03
2023-07-03T08:31:57.234Z,3.92
2023-07-03T08:34:24.825Z,4.28
2023-07-03T08:39:23.868Z,3.50
2023-07-03T08:41:57.177Z,4.38
2023-07-03T08:44:24.792Z,4.30
2023-07-03T08:47:06.490Z,3.45
2023-07-03T08:49:38.983Z,3.05
2023-07-03T08:52:08.383Z,5.15
2023-07-03T08:54:39.053Z,3.90
2023-07-03T08:57:08.037Z,3.72
2023-07-03T08:59:36.143Z,3.55
2023-07-03T09:02:13.828Z,4.38
2023-07-03T09:04:54.807Z,4.65
2023-07-03T09:07:33.205Z,3.92
2023-07-03T09:10:08.500Z,4.07
2023-07-03T09:12:41.321Z,2.88
2023-07-03T09:15:14.901Z,3.75
2023-07-03T09:17:45.046Z,4.70
2023-07-03T09:20:15.847Z,3.28
2023-07-03T09:22:53.244Z,3.15
2023-07-03T09:25:26.171Z,4.00
2023-07-03T09:27:56.854Z,3.55
2023-07-03T09:30:24.733Z,3.70
2023-07-03T09:35:22.740Z,1.20
2023-07-03T09:37:52.773Z,3.88
2023-07-03T09:40:25.821Z,4.00
2023-07-03T09:42:54.132Z,3.08
2023-07-03T09:45:25.513Z,4.00
2023-07-03T09:47:59.631Z,3.35
2023-07-03T09:50:32.421Z,3.25
2023-07-03T09:55:31.676Z,3.00
2023-07-03T09:57:59.294Z,3.80
2023-07-03T10:00:28.178Z,3.35
2023-07-03T10:08:11.225Z,3.20
2023-07-03T10:13:15.276Z,3.60
2023-07-03T10:15:44.150Z,4.32
2023-07-03T10:18:21.468Z,3.17
2023-07-03T10:20:52.349Z,3.65
2023-07-03T10:23:24.300Z,2.55
2023-07-03T10:25:55.815Z,3.33
2023-07-03T10:28:28.773Z,3.25
2023-07-03T10:31:01.920Z,3.00
2023-07-03T10:33:36.341Z,2.95
2023-07-03T10:36:07.722Z,3.42
2023-07-03T10:38:43.480Z,2.60
2023-07-03T10:41:18.067Z,2.72
2023-07-03T10:43:50.653Z,2.80
2023-07-03T10:46:26.243Z,2.53
2023-07-03T10:48:57.776Z,2.45
2023-07-03T10:51:35.868Z,2.17
2023-07-03T10:54:09.103Z,2.63
2023-07-03T10:56:43.646Z,3.00
2023-07-03T10:59:20.915Z,2.92
2023-07-03T11:01:58.546Z,2.50
2023-07-03T11:04:36.941Z,3.00
2023-07-03T11:07:08.970Z,2.08
2023-07-03T11:09:43.300Z,2.58
2023-07-03T11:12:17.949Z,2.67
2023-07-03T11:14:55.747Z,2.17
2023-07-03T11:17:33.707Z,2.15
2023-07-03T11:20:09.809Z,2.35
2023-07-03T11:22:45.897Z,1.58
2023-07-03T11:25:23.670Z,2.10
2023-07-03T11:28:00.441Z,2.13
2023-07-03T11:30:32.235Z,1.83
2023-07-03T11:33:01.416Z,1.58
2023-07-03T11:40:40.340Z,1.98
2023-07-03T11:43:33.283Z,1.10
2023-07-03T11:46:11.458Z,1.23
2023-07-03T11:48:51.447Z,1.23
2023-07-03T11:51:32.768Z,1.17
2023-07-03T11:54:00.737Z,0.98
2023-07-03T11:59:43.486Z,1.42
2023-07-03T12:02:48.028Z,1.40
2023-07-03T12:05:51.358Z,1.33
2023-07-03T12:08:42.820Z,1.20
2023-07-03T12:11:11.916Z,1.15
2023-07-03T12:13:52.041Z,1.50
2023-07-03T12:16:22.672Z,4.05
2023-07-03T12:18:58.782Z,4.05
2023-07-03T12:21:27.298Z,3.45
2023-07-03T12:23:56.183Z,2.70
2023-07-03T12:26:24.844Z,4.28
2023-07-03T12:29:04.220Z,2.50
2023-07-03T12:31:32.139Z,2.72
2023-07-03T12:34:02.112Z,1.73
2023-07-03T12:36:34.242Z,1.50
2023-07-03T12:39:15.239Z,1.58
2023-07-03T12:41:44.294Z,1.63
2023-07-03T12:44:15.690Z,1.60
2023-07-03T12:46:46.342Z,1.25
2023-07-03T12:49:16.644Z,1.30
2023-07-03T12:51:51.856Z,1.45
2023-07-03T12:54:22.700Z,1.50
2023-07-03T12:56:52.961Z,1.30
2023-07-03T12:59:23.918Z,1.77
2023-07-03T13:01:54.853Z,1.23
2023-07-03T13:04:30.356Z,1.50
2023-07-03T13:06:59.080Z,1.65
2023-07-03T13:09:30.149Z,1.05
2023-07-03T13:11:57.872Z,1.35
2023-07-03T13:14:27.821Z,0.70
2023-07-03T13:16:57.377Z,1.33
2023-07-03T13:19:31.473Z,1.00
2023-07-03T13:22:00.697Z,1.00
2023-07-03T13:24:30.842Z,1.58
2023-07-03T13:26:59.838Z,1.45
2023-07-03T13:29:30.425Z,1.02
2023-07-03T13:32:14.316Z,1.00
2023-07-03T13:34:55.411Z,0.73
2023-07-03T13:37:24.582Z,1.00
2023-07-03T13:40:01.048Z,0.90
2023-07-03T13:42:30.373Z,0.73
2023-07-03T13:44:58.526Z,1.00
2023-07-03T13:47:29.032Z,1.00
2023-07-03T13:49:57.128Z,1.00
2023-07-03T13:52:24.883Z,1.10
2023-07-03T13:54:53.760Z,0.98
2023-07-03T13:57:21.430Z,0.93
2023-07-03T13:59:48.911Z,0.63
2023-07-03T14:02:16.459Z,0.70
2023-07-03T14:04:44.747Z,1.20
2023-07-03T14:07:12.437Z,1.00
2023-07-03T14:09:39.940Z,0.98
2023-07-03T14:12:09.510Z,1.10
2023-07-03T14:14:37.076Z,1.08
2023-07-03T14:17:04.911Z,0.85
2023-07-03T14:22:00.280Z,0.80
2023-07-03T14:26:55.513Z,0.60
2023-07-03T14:29:25.436Z,0.88
2023-07-03T14:31:53.026Z,1.00
2023-07-03T14:34:20.743Z,0.90
2023-07-03T14:36:48.853Z,0.55
2023-07-03T14:39:16.349Z,0.88
2023-07-03T14:41:44.363Z,1.40
2023-07-03T14:44:14.162Z,1.10
2023-07-03T14:46:43.133Z,1.20
2023-07-03T14:49:10.764Z,0.90
2023-07-03T14:51:38.538Z,0.98
2023-07-03T14:54:06.065Z,1.13
2023-07-03T14:56:33.547Z,0.93
2023-07-03T14:59:01.205Z,0.65
2023-07-03T15:01:29.083Z,0.85
2023-07-03T15:03:58.102Z,0.73
2023-07-03T15:06:25.752Z,0.82
2023-07-03T15:08:53.820Z,1.10
2023-07-03T15:11:21.503Z,0.68
2023-07-03T15:13:49.140Z,1.05
2023-07-03T15:16:16.815Z,0.82
2023-07-03T15:18:44.361Z,1.33
2023-07-03T15:21:13.404Z,0.80
2023-07-03T15:23:40.906Z,1.05
2023-07-03T15:26:09.286Z,0.88
2023-07-03T15:28:36.854Z,1.00
2023-07-03T15:31:04.926Z,0.95
2023-07-03T15:33:32.507Z,0.90
2023-07-03T15:36:01.264Z,1.20
2023-07-03T15:38:30.231Z,1.00
2023-07-03T15:40:59.299Z,1.15
2023-07-03T15:43:28.037Z,0.95
2023-07-03T15:46:04.306Z,1.00
2023-07-03T15:48:32.201Z,1.10
2023-07-03T15:53:28.913Z,1.52
2023-07-03T15:56:03.458Z,1.08
2023-07-03T15:58:37.376Z,0.90
2023-07-03T16:01:08.818Z,0.90
2023-07-03T16:03:37.498Z,1.02
2023-07-03T16:06:06.835Z,0.75
2023-07-03T16:08:36.593Z,0.82
2023-07-03T16:11:07.691Z,1.10
2023-07-03T16:13:37.152Z,0.88
2023-07-03T16:16:05.365Z,1.10
2023-07-03T16:18:33.223Z,1.42
2023-07-03T16:21:01.824Z,0.75
2023-07-03T16:23:31.476Z,1.05
2023-07-03T16:26:02.619Z,0.85
2023-07-03T16:28:35.245Z,0.68
2023-07-03T16:31:04.644Z,0.63
2023-07-03T16:33:33.728Z,0.50
2023-07-03T16:36:02.838Z,0.50
2023-07-03T16:38:30.906Z,0.75
2023-07-03T16:41:01.271Z,0.55
2023-07-03T16:43:33.846Z,0.98
2023-07-03T16:46:03.247Z,0.70
2023-07-03T16:48:34.646Z,0.93
2023-07-03T16:51:03.837Z,0.80
2023-07-03T16:53:32.928Z,0.80
2023-07-03T16:56:03.589Z,0.70
2023-07-03T16:58:33.647Z,0.68
2023-07-03T17:01:04.253Z,0.70
2023-07-03T17:03:32.286Z,0.60
2023-07-03T17:06:01.042Z,0.80
2023-07-03T17:08:30.328Z,0.80
2023-07-03T17:10:59.152Z,0.80
2023-07-03T17:13:26.726Z,0.80
2023-07-03T17:15:56.034Z,0.77
2023-07-03T17:18:24.259Z,0.98
2023-07-03T17:20:51.934Z,0.80
2023-07-03T17:23:19.892Z,0.73
2023-07-03T17:25:47.409Z,0.98
2023-07-03T17:28:15.249Z,1.00
2023-07-03T17:33:11.674Z,0.65
2023-07-03T17:35:40.267Z,0.63
2023-07-03T17:38:10.791Z,0.60
2023-07-03T17:40:41.933Z,0.80
2023-07-03T17:43:09.498Z,0.50
2023-07-03T17:45:40.710Z,0.68
2023-07-03T17:48:08.308Z,0.80
2023-07-03T17:50:37.297Z,0.75
2023-07-03T17:53:04.850Z,0.50
2023-07-03T17:55:32.534Z,0.80
2023-07-03T17:58:00.843Z,0.52
2023-07-03T18:00:28.570Z,0.95
2023-07-03T18:02:58.518Z,0.60
2023-07-03T18:05:27.858Z,0.70
2023-07-03T18:07:56.724Z,0.73
2023-07-03T18:10:24.764Z,0.50
2023-07-03T18:12:54.856Z,0.57
2023-07-03T18:15:24.083Z,0.73
2023-07-03T18:17:55.375Z,0.60
2023-07-03T18:22:50.342Z,0.63
2023-07-03T18:25:19.255Z,0.80
2023-07-03T18:27:46.833Z,0.60
2023-07-03T18:30:14.610Z,0.70
2023-07-03T18:32:48.097Z,0.73
2023-07-03T18:35:15.792Z,0.80
2023-07-03T18:37:43.405Z,0.57
2023-07-03T18:40:11.654Z,0.60
2023-07-03T18:42:40.545Z,0.73
2023-07-03T18:45:08.936Z,0.73
2023-07-03T18:47:36.548Z,0.52
2023-07-03T18:50:04.584Z,0.70
2023-07-03T18:52:32.102Z,0.98
2023-07-03T18:54:59.669Z,0.70
2023-07-03T18:57:27.248Z,0.57
2023-07-03T18:59:56.124Z,0.70
2023-07-03T19:02:23.737Z,0.63
2023-07-03T19:04:53.176Z,0.80
2023-07-03T19:07:20.795Z,0.60
2023-07-03T19:09:48.325Z,0.65
2023-07-03T19:12:18.166Z,0.60
2023-07-03T19:14:45.726Z,0.80
2023-07-03T19:17:14.805Z,0.75
2023-07-03T19:19:42.552Z,0.90
2023-07-03T19:22:10.216Z,0.70
2023-07-03T19:24:38.166Z,0.77
2023-07-03T19:29:33.598Z,0.63
2023-07-03T19:32:01.345Z,0.68
2023-07-03T19:34:32.228Z,0.75
2023-07-03T19:37:00.525Z,0.50
2023-07-03T19:39:29.333Z,0.60
2023-07-03T19:41:56.889Z,0.68
2023-07-03T19:44:24.597Z,0.88
2023-07-03T19:46:52.180Z,0.43
2023-07-03T19:49:19.746Z,0.73
2023-07-03T19:51:49.027Z,0.80
2023-07-03T19:54:16.868Z,0.80
2023-07-03T19:56:44.362Z,0.80
2023-07-03T19:59:14.009Z,0.68
2023-07-03T20:01:41.593Z,0.93
2023-07-03T20:04:09.358Z,0.75
2023-07-03T20:09:08.586Z,0.80
2023-07-03T20:11:36.094Z,0.70
2023-07-03T20:14:03.691Z,1.20
2023-07-03T20:16:32.032Z,0.90
2023-07-03T20:18:59.680Z,0.98
2023-07-03T20:21:27.610Z,1.52
2023-07-03T20:26:28.053Z,0.77
2023-07-03T20:28:56.002Z,0.80
2023-07-03T20:33:51.673Z,0.70
2023-07-03T20:36:20.610Z,0.70
2023-07-03T20:38:48.099Z,0.90
2023-07-03T20:41:17.008Z,0.75
2023-07-03T20:43:46.724Z,0.70
2023-07-03T20:46:17.353Z,0.82
2023-07-03T20:48:45.434Z,0.68
2023-07-03T20:51:22.078Z,0.80
2023-07-03T20:54:00.200Z,0.93
2023-07-03T20:56:32.191Z,0.80
2023-07-03T20:59:03.064Z,0.80
2023-07-03T21:01:32.663Z,0.85
2023-07-03T21:04:02.274Z,0.90
2023-07-03T21:06:32.436Z,0.82
2023-07-03T21:09:00.937Z,0.70
2023-07-03T21:11:32.401Z,1.13
2023-07-03T21:14:05.247Z,1.00
2023-07-03T21:16:34.256Z,1.00
2023-07-03T21:22:00.750Z,1.67
2023-07-03T21:24:28.391Z,0.75
2023-07-03T21:26:55.900Z,1.05
2023-07-03T21:29:25.091Z,1.02
2023-07-03T21:31:52.791Z,1.23
2023-07-03T21:34:20.647Z,0.68
2023-07-03T21:36:48.552Z,0.73
2023-07-03T21:41:43.571Z,0.90
2023-07-03T21:44:13.354Z,0.70
2023-07-03T21:46:43.041Z,0.65
2023-07-03T21:49:13.516Z,0.80
2023-07-03T21:51:41.220Z,0.90
2023-07-03T21:54:08.919Z,0.85
2023-07-03T21:56:39.246Z,0.70
2023-07-03T21:59:06.953Z,0.82
2023-07-03T22:01:37.513Z,0.80
2023-07-03T22:04:08.341Z,0.73
2023-07-03T22:06:35.972Z,0.77
2023-07-03T22:09:04.032Z,0.95
2023-07-03T22:11:32.338Z,0.70
2023-07-03T22:14:00.278Z,1.00
2023-07-03T22:18:55.429Z,0.93
2023-07-03T22:21:25.067Z,0.90
2023-07-03T22:23:52.686Z,1.10
2023-07-03T22:26:21.766Z,0.80
2023-07-03T22:28:49.320Z,1.13
2023-07-03T22:31:17.063Z,0.90
2023-07-03T22:33:44.700Z,0.70
2023-07-03T22:36:14.020Z,0.85
2023-07-03T22:38:42.957Z,0.70
2023-07-03T22:41:11.236Z,1.00
2023-07-03T22:43:38.762Z,0.85
2023-07-03T22:46:07.442Z,0.90
2023-07-03T22:48:35.785Z,1.20
2023-07-03T22:51:03.334Z,1.10
2023-07-03T22:53:31.012Z,1.00
2023-07-03T22:56:03.170Z,1.10
2023-07-03T22:58:30.694Z,0.88
2023-07-03T23:00:58.227Z,0.68
2023-07-03T23:03:25.829Z,0.88
2023-07-03T23:05:53.934Z,1.08
2023-07-03T23:08:24.988Z,1.00
2023-07-03T23:10:53.525Z,0.80
2023-07-03T23:13:24.733Z,0.90
2023-07-03T23:15:56.800Z,0.90
2023-07-03T23:18:24.960Z,1.23
2023-07-03T23:20:56.886Z,1.00
2023-07-03T23:23:27.760Z,0.82
2023-07-03T23:25:57.118Z,0.68
2023-07-03T23:28:32.165Z,1.35
2023-07-03T23:31:01.907Z,1.00
2023-07-03T23:33:30.359Z,0.98
2023-07-03T23:35:59.224Z,0.80
2023-07-03T23:38:26.984Z,0.90
2023-07-03T23:40:55.380Z,0.82
2023-07-03T23:43:23.980Z,0.95
2023-07-03T23:45:53.350Z,0.80
2023-07-03T23:48:21.043Z,1.08
2023-07-03T23:50:56.360Z,1.00
2023-07-03T23:53:25.637Z,1.00
2023-07-03T23:55:54.517Z,0.90
2023-07-03T23:58:22.993Z,0.88
